92XS weather

T.R. Funk Inc Airport
Raymondville, Texas, United States

Public forecast

Using degrees Fahrenheit for public forecast. Weather courtesy of forecast.io.

Closest aviation weather report (METAR) to T.R. Funk Inc Airport

Closest report is Valley International Airport, 15.1 nm (28.0 km) S. Retrieved 2019/10/21 08:52 UTC (44 minutes ago):

KHRL 210852Z AUTO 16007KT 10SM -RA BKN110 23/23 A2970 RMK AO2 SLP057 P0007 60091 T02330233 56006 TSNO

Closest aviation forecast (TAF) to T.R. Funk Inc Airport

Closest forecast is Valley International Airport, 15.1 nm (28.0 km) S. Retrieved 2019/10/21 06:39 UTC (3 hours ago):

TAF KHRL 210537Z 2106/2206 15010KT P6SM -SHRA VCTS SCT015 OVC030CB TEMPO 2106/2110 VRB25G40KT 2SM TSRA BKN020CB FM211200 17009KT P6SM VCSH SCT015 OVC050 FM212000 31010KT P6SM BKN050 FM212300 36012KT P6SM FEW250